sensor_id;sensor_type;location;lat;lon;timestamp;temperature;humidity
75899;DHT22;64576;50.460;4.866;2024-03-02T00:00:54;6.06;99.99
75899;DHT22;64576;50.460;4.866;2024-03-02T00:03:20;5.99;99.99
75899;DHT22;64576;50.460;4.866;2024-03-02T00:05:49;6.00;99.99
75899;DHT22;64576;50.460;4.866;2024-03-02T00:08:22;6.07;99.99
75899;DHT22;64576;50.460;4.866;2024-03-02T00:10:47;6.09;99.88
75899;DHT22;64576;50.460;4.866;2024-03-02T00:13:13;6.07;99.82
75899;DHT22;64576;50.460;4.866;2024-03-02T00:15:46;5.97;99.99
75899;DHT22;64576;50.460;4.866;2024-03-02T00:18:14;6.13;98.19
75899;DHT22;64576;50.460;4.866;2024-03-02T00:20:41;5.92;99.61
75899;DHT22;64576;50.460;4.866;2024-03-02T00:23:08;5.85;99.99
75899;DHT22;64576;50.460;4.866;2024-03-02T00:25:42;5.83;99.99
75899;DHT22;64576;50.460;4.866;2024-03-02T00:28:35;5.82;99.99
75899;DHT22;64576;50.460;4.866;2024-03-02T00:33:43;5.72;99.99
75899;DHT22;64576;50.460;4.866;2024-03-02T00:36:09;5.73;99.99
75899;DHT22;64576;50.460;4.866;2024-03-02T00:38:50;5.63;99.99
75899;DHT22;64576;50.460;4.866;2024-03-02T00:41:40;5.58;99.99
75899;DHT22;64576;50.460;4.866;2024-03-02T00:44:06;5.49;99.99
75899;DHT22;64576;50.460;4.866;2024-03-02T00:46:37;5.51;99.99
75899;DHT22;64576;50.460;4.866;2024-03-02T00:49:04;5.39;99.99
75899;DHT22;64576;50.460;4.866;2024-03-02T00:51:31;5.30;99.99
75899;DHT22;64576;50.460;4.866;2024-03-02T00:54:02;5.30;99.99
75899;DHT22;64576;50.460;4.866;2024-03-02T00:56:29;5.21;99.99
75899;DHT22;64576;50.460;4.866;2024-03-02T00:58:55;5.17;99.99
75899;DHT22;64576;50.460;4.866;2024-03-02T01:01:21;5.14;99.99
75899;DHT22;64576;50.460;4.866;2024-03-02T01:03:46;5.14;99.99
75899;DHT22;64576;50.460;4.866;2024-03-02T01:06:12;5.08;99.99
75899;DHT22;64576;50.460;4.866;2024-03-02T01:08:39;5.07;99.99
75899;DHT22;64576;50.460;4.866;2024-03-02T01:11:04;5.04;99.99
75899;DHT22;64576;50.460;4.866;2024-03-02T01:13:31;5.03;99.99
75899;DHT22;64576;50.460;4.866;2024-03-02T01:15:57;4.97;99.99
75899;DHT22;64576;50.460;4.866;2024-03-02T01:18:23;4.94;99.99
75899;DHT22;64576;50.460;4.866;2024-03-02T01:20:49;5.03;99.99
75899;DHT22;64576;50.460;4.866;2024-03-02T01:23:18;4.94;99.99
75899;DHT22;64576;50.460;4.866;2024-03-02T01:25:45;4.94;99.99
75899;DHT22;64576;50.460;4.866;2024-03-02T01:28:10;4.99;99.99
75899;DHT22;64576;50.460;4.866;2024-03-02T01:30:36;4.96;99.99
75899;DHT22;64576;50.460;4.866;2024-03-02T01:33:01;4.90;99.99
75899;DHT22;64576;50.460;4.866;2024-03-02T01:35:27;4.90;99.99
75899;DHT22;64576;50.460;4.866;2024-03-02T01:37:53;4.93;99.99
75899;DHT22;64576;50.460;4.866;2024-03-02T01:40:18;4.93;99.99
75899;DHT22;64576;50.460;4.866;2024-03-02T01:42:44;4.89;99.99
75899;DHT22;64576;50.460;4.866;2024-03-02T01:45:10;4.86;99.99
75899;DHT22;64576;50.460;4.866;2024-03-02T01:47:35;4.91;99.99
75899;DHT22;64576;50.460;4.866;2024-03-02T01:50:01;4.84;99.99
75899;DHT22;64576;50.460;4.866;2024-03-02T01:52:27;4.90;99.99
75899;DHT22;64576;50.460;4.866;2024-03-02T01:54:52;4.86;99.99
75899;DHT22;64576;50.460;4.866;2024-03-02T01:57:18;4.83;99.99
75899;DHT22;64576;50.460;4.866;2024-03-02T01:59:44;4.91;99.99
75899;DHT22;64576;50.460;4.866;2024-03-02T02:02:09;4.91;99.99
75899;DHT22;64576;50.460;4.866;2024-03-02T02:04:35;4.86;99.99
75899;DHT22;64576;50.460;4.866;2024-03-02T02:07:00;4.90;99.99
75899;DHT22;64576;50.460;4.866;2024-03-02T02:09:26;4.93;99.99
75899;DHT22;64576;50.460;4.866;2024-03-02T02:11:51;4.94;99.99
75899;DHT22;64576;50.460;4.866;2024-03-02T02:14:17;4.91;99.99
75899;DHT22;64576;50.460;4.866;2024-03-02T02:16:42;4.96;99.99
75899;DHT22;64576;50.460;4.866;2024-03-02T02:19:08;4.93;99.99
75899;DHT22;64576;50.460;4.866;2024-03-02T02:21:34;4.86;99.99
75899;DHT22;64576;50.460;4.866;2024-03-02T02:24:00;4.97;99.99
75899;DHT22;64576;50.460;4.866;2024-03-02T02:26:26;4.96;99.99
75899;DHT22;64576;50.460;4.866;2024-03-02T02:28:51;4.96;99.99
75899;DHT22;64576;50.460;4.866;2024-03-02T02:31:17;4.96;99.99
75899;DHT22;64576;50.460;4.866;2024-03-02T02:33:42;4.97;99.99
75899;DHT22;64576;50.460;4.866;2024-03-02T02:36:08;4.97;99.99
75899;DHT22;64576;50.460;4.866;2024-03-02T02:38:38;4.94;99.99
75899;DHT22;64576;50.460;4.866;2024-03-02T02:41:04;4.91;99.99
75899;DHT22;64576;50.460;4.866;2024-03-02T02:43:30;4.91;99.99
75899;DHT22;64576;50.460;4.866;2024-03-02T02:45:55;4.93;99.99
75899;DHT22;64576;50.460;4.866;2024-03-02T02:48:20;4.93;99.99
75899;DHT22;64576;50.460;4.866;2024-03-02T02:50:46;4.94;99.99
75899;DHT22;64576;50.460;4.866;2024-03-02T02:53:11;4.96;99.99
75899;DHT22;64576;50.460;4.866;2024-03-02T02:55:36;4.96;99.99
75899;DHT22;64576;50.460;4.866;2024-03-02T02:58:06;4.89;99.99
75899;DHT22;64576;50.460;4.866;2024-03-02T03:00:31;4.84;99.99
75899;DHT22;64576;50.460;4.866;2024-03-02T03:02:57;4.86;99.99
75899;DHT22;64576;50.460;4.866;2024-03-02T03:05:22;4.83;99.99
75899;DHT22;64576;50.460;4.866;2024-03-02T03:07:47;4.81;99.99
75899;DHT22;64576;50.460;4.866;2024-03-02T03:10:15;4.75;99.99
75899;DHT22;64576;50.460;4.866;2024-03-02T03:12:41;4.77;99.99
75899;DHT22;64576;50.460;4.866;2024-03-02T03:15:11;4.70;99.99
75899;DHT22;64576;50.460;4.866;2024-03-02T03:17:37;4.68;99.99
75899;DHT22;64576;50.460;4.866;2024-03-02T03:20:03;4.75;99.99
75899;DHT22;64576;50.460;4.866;2024-03-02T03:22:30;4.69;99.99
75899;DHT22;64576;50.460;4.866;2024-03-02T03:24:56;4.62;99.99
75899;DHT22;64576;50.460;4.866;2024-03-02T03:27:21;4.59;99.99
75899;DHT22;64576;50.460;4.866;2024-03-02T03:29:46;4.61;99.99
75899;DHT22;64576;50.460;4.866;2024-03-02T03:32:12;4.55;99.99
75899;DHT22;64576;50.460;4.866;2024-03-02T03:34:37;4.55;99.99
75899;DHT22;64576;50.460;4.866;2024-03-02T03:37:03;4.69;99.99
75899;DHT22;64576;50.460;4.866;2024-03-02T03:39:28;4.75;99.99
75899;DHT22;64576;50.460;4.866;2024-03-02T03:41:54;4.79;99.99
75899;DHT22;64576;50.460;4.866;2024-03-02T03:44:19;4.90;99.99
75899;DHT22;64576;50.460;4.866;2024-03-02T03:46:45;4.94;99.99
75899;DHT22;64576;50.460;4.866;2024-03-02T03:49:11;4.99;99.99
75899;DHT22;64576;50.460;4.866;2024-03-02T03:51:36;5.04;99.99
75899;DHT22;64576;50.460;4.866;2024-03-02T03:54:01;5.08;99.99
75899;DHT22;64576;50.460;4.866;2024-03-02T03:56:27;5.11;99.99
75899;DHT22;64576;50.460;4.866;2024-03-02T03:58:52;5.08;99.99
75899;DHT22;64576;50.460;4.866;2024-03-02T04:01:18;5.11;99.99
75899;DHT22;64576;50.460;4.866;2024-03-02T04:03:43;5.10;99.99
75899;DHT22;64576;50.460;4.866;2024-03-02T04:06:09;5.06;99.99
75899;DHT22;64576;50.460;4.866;2024-03-02T04:08:35;5.13;99.99
75899;DHT22;64576;50.460;4.866;2024-03-02T04:11:00;4.99;99.99
75899;DHT22;64576;50.460;4.866;2024-03-02T04:13:27;4.99;99.99
75899;DHT22;64576;50.460;4.866;2024-03-02T04:15:53;4.87;99.99
75899;DHT22;64576;50.460;4.866;2024-03-02T04:18:19;4.90;99.99
75899;DHT22;64576;50.460;4.866;2024-03-02T04:20:44;4.86;99.99
75899;DHT22;64576;50.460;4.866;2024-03-02T04:23:09;4.84;99.99
75899;DHT22;64576;50.460;4.866;2024-03-02T04:25:35;4.86;99.99
75899;DHT22;64576;50.460;4.866;2024-03-02T04:28:01;5.03;99.99
75899;DHT22;64576;50.460;4.866;2024-03-02T04:30:26;5.00;99.99
75899;DHT22;64576;50.460;4.866;2024-03-02T04:32:52;5.08;99.99
75899;DHT22;64576;50.460;4.866;2024-03-02T04:35:17;5.03;99.99
75899;DHT22;64576;50.460;4.866;2024-03-02T04:37:42;5.07;99.99
75899;DHT22;64576;50.460;4.866;2024-03-02T04:40:08;5.07;99.99
75899;DHT22;64576;50.460;4.866;2024-03-02T04:42:34;5.01;99.99
75899;DHT22;64576;50.460;4.866;2024-03-02T04:45:00;5.07;99.99
75899;DHT22;64576;50.460;4.866;2024-03-02T04:47:25;5.04;99.99
75899;DHT22;64576;50.460;4.866;2024-03-02T04:49:51;5.03;99.99
75899;DHT22;64576;50.460;4.866;2024-03-02T04:52:16;4.93;99.99
75899;DHT22;64576;50.460;4.866;2024-03-02T04:54:42;4.80;99.99
75899;DHT22;64576;50.460;4.866;2024-03-02T04:57:26;4.77;99.99
75899;DHT22;64576;50.460;4.866;2024-03-02T04:59:51;4.62;99.99
75899;DHT22;64576;50.460;4.866;2024-03-02T05:02:17;4.56;99.99
75899;DHT22;64576;50.460;4.866;2024-03-02T05:04:42;4.45;99.99
75899;DHT22;64576;50.460;4.866;2024-03-02T05:07:07;4.58;99.99
75899;DHT22;64576;50.460;4.866;2024-03-02T05:09:33;4.65;99.99
75899;DHT22;64576;50.460;4.866;2024-03-02T05:11:58;4.56;99.99
75899;DHT22;64576;50.460;4.866;2024-03-02T05:14:42;4.62;99.99
75899;DHT22;64576;50.460;4.866;2024-03-02T05:17:07;4.69;99.99
75899;DHT22;64576;50.460;4.866;2024-03-02T05:19:33;4.53;99.99
75899;DHT22;64576;50.460;4.866;2024-03-02T05:21:58;4.41;99.99
75899;DHT22;64576;50.460;4.866;2024-03-02T05:24:23;4.37;99.99
75899;DHT22;64576;50.460;4.866;2024-03-02T05:26:49;4.38;99.99
75899;DHT22;64576;50.460;4.866;2024-03-02T05:29:14;4.53;99.99
75899;DHT22;64576;50.460;4.866;2024-03-02T05:31:40;4.40;99.99
75899;DHT22;64576;50.460;4.866;2024-03-02T05:34:05;4.58;99.99
75899;DHT22;64576;50.460;4.866;2024-03-02T05:36:31;4.42;99.99
75899;DHT22;64576;50.460;4.866;2024-03-02T05:38:57;4.40;99.99
75899;DHT22;64576;50.460;4.866;2024-03-02T05:41:22;4.42;99.99
75899;DHT22;64576;50.460;4.866;2024-03-02T05:43:48;4.45;99.99
75899;DHT22;64576;50.460;4.866;2024-03-02T05:46:13;4.31;99.99
75899;DHT22;64576;50.460;4.866;2024-03-02T05:48:38;4.49;99.99
75899;DHT22;64576;50.460;4.866;2024-03-02T05:51:04;4.38;99.99
75899;DHT22;64576;50.460;4.866;2024-03-02T05:53:29;4.27;99.99
75899;DHT22;64576;50.460;4.866;2024-03-02T05:55:54;4.30;99.99
75899;DHT22;64576;50.460;4.866;2024-03-02T05:58:23;4.35;99.99
75899;DHT22;64576;50.460;4.866;2024-03-02T06:01:07;4.04;99.99
75899;DHT22;64576;50.460;4.866;2024-03-02T06:03:33;4.25;99.99
75899;DHT22;64576;50.460;4.866;2024-03-02T06:05:58;4.21;99.99
75899;DHT22;64576;50.460;4.866;2024-03-02T06:08:23;4.30;99.99
75899;DHT22;64576;50.460;4.866;2024-03-02T06:10:49;4.15;99.99
75899;DHT22;64576;50.460;4.866;2024-03-02T06:13:14;4.03;99.99
75899;DHT22;64576;50.460;4.866;2024-03-02T06:15:40;3.96;99.99
75899;DHT22;64576;50.460;4.866;2024-03-02T06:18:05;4.03;99.99
75899;DHT22;64576;50.460;4.866;2024-03-02T06:20:32;4.15;99.99
75899;DHT22;64576;50.460;4.866;2024-03-02T06:22:58;4.24;99.99
75899;DHT22;64576;50.460;4.866;2024-03-02T06:25:23;4.13;99.99
75899;DHT22;64576;50.460;4.866;2024-03-02T06:27:49;4.25;99.99
75899;DHT22;64576;50.460;4.866;2024-03-02T06:30:14;4.31;99.99
75899;DHT22;64576;50.460;4.866;2024-03-02T06:32:39;4.28;99.99
75899;DHT22;64576;50.460;4.866;2024-03-02T06:35:05;4.42;99.99
75899;DHT22;64576;50.460;4.866;2024-03-02T06:37:32;4.45;99.99
75899;DHT22;64576;50.460;4.866;2024-03-02T06:39:58;4.48;99.99
75899;DHT22;64576;50.460;4.866;2024-03-02T06:42:23;4.61;99.99
75899;DHT22;64576;50.460;4.866;2024-03-02T06:44:49;4.62;99.99
75899;DHT22;64576;50.460;4.866;2024-03-02T06:47:15;4.72;99.99
75899;DHT22;64576;50.460;4.866;2024-03-02T06:49:42;4.72;99.99
75899;DHT22;64576;50.460;4.866;2024-03-02T06:52:07;4.66;99.99
75899;DHT22;64576;50.460;4.866;2024-03-02T06:54:32;4.62;99.99
75899;DHT22;64576;50.460;4.866;2024-03-02T06:57:00;4.62;99.99
75899;DHT22;64576;50.460;4.866;2024-03-02T06:59:25;4.69;99.99
75899;DHT22;64576;50.460;4.866;2024-03-02T07:01:50;4.77;99.99
75899;DHT22;64576;50.460;4.866;2024-03-02T07:04:16;4.72;99.99
75899;DHT22;64576;50.460;4.866;2024-03-02T07:06:41;4.79;99.99
75899;DHT22;64576;50.460;4.866;2024-03-02T07:09:06;4.83;99.99
75899;DHT22;64576;50.460;4.866;2024-03-02T07:11:36;5.13;99.85
75899;DHT22;64576;50.460;4.866;2024-03-02T07:14:01;5.34;99.35
75899;DHT22;64576;50.460;4.866;2024-03-02T07:16:27;5.99;97.35
75899;DHT22;64576;50.460;4.866;2024-03-02T07:18:58;6.49;95.27
75899;DHT22;64576;50.460;4.866;2024-03-02T07:21:24;6.72;94.63
75899;DHT22;64576;50.460;4.866;2024-03-02T07:23:50;6.73;93.94
75899;DHT22;64576;50.460;4.866;2024-03-02T07:26:16;6.97;93.68
75899;DHT22;64576;50.460;4.866;2024-03-02T07:28:44;7.10;93.01
75899;DHT22;64576;50.460;4.866;2024-03-02T07:31:09;6.75;94.10
75899;DHT22;64576;50.460;4.866;2024-03-02T07:33:35;6.72;94.54
75899;DHT22;64576;50.460;4.866;2024-03-02T07:36:01;6.62;94.62
75899;DHT22;64576;50.460;4.866;2024-03-02T07:38:28;6.90;93.85
75899;DHT22;64576;50.460;4.866;2024-03-02T07:40:54;7.17;93.20
75899;DHT22;64576;50.460;4.866;2024-03-02T07:43:20;7.47;91.95
75899;DHT22;64576;50.460;4.866;2024-03-02T07:45:46;7.76;91.52
75899;DHT22;64576;50.460;4.866;2024-03-02T07:48:12;7.75;91.13
75899;DHT22;64576;50.460;4.866;2024-03-02T07:50:37;7.31;92.23
75899;DHT22;64576;50.460;4.866;2024-03-02T07:53:04;7.30;91.85
75899;DHT22;64576;50.460;4.866;2024-03-02T07:55:30;7.31;92.62
75899;DHT22;64576;50.460;4.866;2024-03-02T07:57:56;7.56;91.86
75899;DHT22;64576;50.460;4.866;2024-03-02T08:00:22;7.76;90.90
75899;DHT22;64576;50.460;4.866;2024-03-02T08:02:48;8.17;89.35
75899;DHT22;64576;50.460;4.866;2024-03-02T08:05:14;8.21;89.70
75899;DHT22;64576;50.460;4.866;2024-03-02T08:07:40;8.10;89.04
75899;DHT22;64576;50.460;4.866;2024-03-02T08:10:06;8.01;90.03
75899;DHT22;64576;50.460;4.866;2024-03-02T08:12:32;7.94;89.81
75899;DHT22;64576;50.460;4.866;2024-03-02T08:14:57;7.91;90.10
75899;DHT22;64576;50.460;4.866;2024-03-02T08:17:23;8.14;89.26
75899;DHT22;64576;50.460;4.866;2024-03-02T08:19:48;7.94;89.37
75899;DHT22;64576;50.460;4.866;2024-03-02T08:22:17;8.06;89.78
75899;DHT22;64576;50.460;4.866;2024-03-02T08:24:42;8.38;89.63
75899;DHT22;64576;50.460;4.866;2024-03-02T08:27:08;8.10;88.92
75899;DHT22;64576;50.460;4.866;2024-03-02T08:29:34;8.24;88.85
75899;DHT22;64576;50.460;4.866;2024-03-02T08:32:00;8.17;89.31
75899;DHT22;64576;50.460;4.866;2024-03-02T08:34:25;8.90;88.40
75899;DHT22;64576;50.460;4.866;2024-03-02T08:36:50;9.41;87.39
75899;DHT22;64576;50.460;4.866;2024-03-02T08:39:16;8.66;87.90
75899;DHT22;64576;50.460;4.866;2024-03-02T08:41:44;9.24;86.19
75899;DHT22;64576;50.460;4.866;2024-03-02T08:44:09;8.20;88.54
75899;DHT22;64576;50.460;4.866;2024-03-02T08:46:35;7.70;89.61
75899;DHT22;64576;50.460;4.866;2024-03-02T08:49:01;7.65;89.93
75899;DHT22;64576;50.460;4.866;2024-03-02T08:51:27;7.75;89.46
75899;DHT22;64576;50.460;4.866;2024-03-02T08:53:52;7.82;89.44
75899;DHT22;64576;50.460;4.866;2024-03-02T08:56:17;7.87;89.37
75899;DHT22;64576;50.460;4.866;2024-03-02T08:58:43;7.90;89.17
75899;DHT22;64576;50.460;4.866;2024-03-02T09:01:09;8.06;88.98
75899;DHT22;64576;50.460;4.866;2024-03-02T09:03:34;8.27;88.83
75899;DHT22;64576;50.460;4.866;2024-03-02T09:06:00;8.45;88.70
75899;DHT22;64576;50.460;4.866;2024-03-02T09:08:26;8.44;88.22
75899;DHT22;64576;50.460;4.866;2024-03-02T09:10:51;8.35;87.82
75899;DHT22;64576;50.460;4.866;2024-03-02T09:13:17;8.27;88.70
75899;DHT22;64576;50.460;4.866;2024-03-02T09:15:43;8.55;88.04
75899;DHT22;64576;50.460;4.866;2024-03-02T09:18:09;8.97;86.48
75899;DHT22;64576;50.460;4.866;2024-03-02T09:20:35;8.73;87.03
75899;DHT22;64576;50.460;4.866;2024-03-02T09:23:00;8.79;87.07
75899;DHT22;64576;50.460;4.866;2024-03-02T09:25:25;9.30;86.69
75899;DHT22;64576;50.460;4.866;2024-03-02T09:27:51;9.55;86.03
75899;DHT22;64576;50.460;4.866;2024-03-02T09:30:16;9.24;86.44
75899;DHT22;64576;50.460;4.866;2024-03-02T09:32:41;9.26;86.42
75899;DHT22;64576;50.460;4.866;2024-03-02T09:35:07;10.38;84.68
75899;DHT22;64576;50.460;4.866;2024-03-02T09:37:34;9.44;85.67
75899;DHT22;64576;50.460;4.866;2024-03-02T09:39:59;10.16;84.31
75899;DHT22;64576;50.460;4.866;2024-03-02T09:42:25;10.02;83.17
75899;DHT22;64576;50.460;4.866;2024-03-02T09:44:51;9.32;86.38
75899;DHT22;64576;50.460;4.866;2024-03-02T09:47:17;9.23;86.86
75899;DHT22;64576;50.460;4.866;2024-03-02T09:49:42;10.78;83.38
75899;DHT22;64576;50.460;4.866;2024-03-02T09:52:10;11.61;81.38
75899;DHT22;64576;50.460;4.866;2024-03-02T09:54:35;12.00;79.31
75899;DHT22;64576;50.460;4.866;2024-03-02T09:57:01;11.55;80.55
75899;DHT22;64576;50.460;4.866;2024-03-02T09:59:28;11.42;81.27
75899;DHT22;64576;50.460;4.866;2024-03-02T10:02:03;11.69;80.48
75899;DHT22;64576;50.460;4.866;2024-03-02T10:04:30;11.93;79.66
75899;DHT22;64576;50.460;4.866;2024-03-02T10:07:25;12.75;78.88
75899;DHT22;64576;50.460;4.866;2024-03-02T10:09:51;12.09;78.65
75899;DHT22;64576;50.460;4.866;2024-03-02T10:12:18;11.38;80.58
75899;DHT22;64576;50.460;4.866;2024-03-02T10:14:43;11.52;80.02
75899;DHT22;64576;50.460;4.866;2024-03-02T10:17:11;12.37;78.84
75899;DHT22;64576;50.460;4.866;2024-03-02T10:19:37;11.96;77.17
75899;DHT22;64576;50.460;4.866;2024-03-02T10:22:07;11.57;79.36
75899;DHT22;64576;50.460;4.866;2024-03-02T10:27:28;12.41;77.37
75899;DHT22;64576;50.460;4.866;2024-03-02T10:29:52;12.72;75.45
75899;DHT22;64576;50.460;4.866;2024-03-02T10:32:22;11.81;77.52
75899;DHT22;64576;50.460;4.866;2024-03-02T10:34:47;12.43;75.53
75899;DHT22;64576;50.460;4.866;2024-03-02T10:37:14;13.22;73.96
75899;DHT22;64576;50.460;4.866;2024-03-02T10:39:40;12.30;76.57
75899;DHT22;64576;50.460;4.866;2024-03-02T10:42:06;12.34;75.27
75899;DHT22;64576;50.460;4.866;2024-03-02T10:44:32;12.19;76.13
75899;DHT22;64576;50.460;4.866;2024-03-02T10:47:05;12.65;75.61
75899;DHT22;64576;50.460;4.866;2024-03-02T10:49:31;13.37;72.95
75899;DHT22;64576;50.460;4.866;2024-03-02T10:51:58;12.51;74.37
75899;DHT22;64576;50.460;4.866;2024-03-02T10:54:24;12.96;74.45
75899;DHT22;64576;50.460;4.866;2024-03-02T10:56:55;12.65;73.52
75899;DHT22;64576;50.460;4.866;2024-03-02T10:59:33;12.72;74.28
75899;DHT22;64576;50.460;4.866;2024-03-02T11:02:01;13.47;72.92
75899;DHT22;64576;50.460;4.866;2024-03-02T11:04:28;13.92;70.92
75899;DHT22;64576;50.460;4.866;2024-03-02T11:07:06;12.65;73.37
75899;DHT22;64576;50.460;4.866;2024-03-02T11:09:40;13.17;73.56
75899;DHT22;64576;50.460;4.866;2024-03-02T11:14:55;14.59;69.61
75899;DHT22;64576;50.460;4.866;2024-03-02T11:17:21;13.64;70.08
75899;DHT22;64576;50.460;4.866;2024-03-02T11:19:48;12.89;72.58
75899;DHT22;64576;50.460;4.866;2024-03-02T11:22:15;13.36;72.06
75899;DHT22;64576;50.460;4.866;2024-03-02T11:24:49;11.95;74.90
75899;DHT22;64576;50.460;4.866;2024-03-02T11:33:02;11.71;75.73
75899;DHT22;64576;50.460;4.866;2024-03-02T11:35:38;12.30;74.98
75899;DHT22;64576;50.460;4.866;2024-03-02T11:38:07;13.06;73.77
75899;DHT22;64576;50.460;4.866;2024-03-02T11:40:32;14.22;70.53
75899;DHT22;64576;50.460;4.866;2024-03-02T11:43:01;14.01;71.62
75899;DHT22;64576;50.460;4.866;2024-03-02T11:45:27;13.46;71.38
75899;DHT22;64576;50.460;4.866;2024-03-02T11:47:57;13.94;71.75
75899;DHT22;64576;50.460;4.866;2024-03-02T11:50:29;13.99;70.70
75899;DHT22;64576;50.460;4.866;2024-03-02T11:52:56;13.43;72.11
75899;DHT22;64576;50.460;4.866;2024-03-02T11:55:22;13.77;71.27
75899;DHT22;64576;50.460;4.866;2024-03-02T11:57:48;13.65;71.73
75899;DHT22;64576;50.460;4.866;2024-03-02T12:00:19;13.50;72.11
75899;DHT22;64576;50.460;4.866;2024-03-02T12:02:46;13.10;72.23
75899;DHT22;64576;50.460;4.866;2024-03-02T12:05:15;13.05;74.20
75899;DHT22;64576;50.460;4.866;2024-03-02T12:07:42;12.32;75.00
75899;DHT22;64576;50.460;4.866;2024-03-02T12:10:08;11.92;76.04
75899;DHT22;64576;50.460;4.866;2024-03-02T12:12:33;11.95;76.13
75899;DHT22;64576;50.460;4.866;2024-03-02T12:14:58;11.92;76.91
75899;DHT22;64576;50.460;4.866;2024-03-02T12:17:26;12.19;75.99
75899;DHT22;64576;50.460;4.866;2024-03-02T12:19:51;12.54;74.98
75899;DHT22;64576;50.460;4.866;2024-03-02T12:22:17;12.81;74.93
75899;DHT22;64576;50.460;4.866;2024-03-02T12:24:43;12.50;75.03
75899;DHT22;64576;50.460;4.866;2024-03-02T12:27:12;12.34;75.24
75899;DHT22;64576;50.460;4.866;2024-03-02T12:29:38;12.48;75.37
75899;DHT22;64576;50.460;4.866;2024-03-02T12:32:05;13.54;72.90
75899;DHT22;64576;50.460;4.866;2024-03-02T12:34:30;13.26;72.62
75899;DHT22;64576;50.460;4.866;2024-03-02T12:36:56;12.65;73.82
75899;DHT22;64576;50.460;4.866;2024-03-02T12:39:22;12.20;75.38
75899;DHT22;64576;50.460;4.866;2024-03-02T12:41:49;12.13;75.58
75899;DHT22;64576;50.460;4.866;2024-03-02T12:44:16;12.98;74.78
75899;DHT22;64576;50.460;4.866;2024-03-02T12:46:41;14.39;72.17
75899;DHT22;64576;50.460;4.866;2024-03-02T12:49:08;13.78;71.69
75899;DHT22;64576;50.460;4.866;2024-03-02T12:51:35;13.35;73.08
75899;DHT22;64576;50.460;4.866;2024-03-02T12:54:01;12.50;73.28
75899;DHT22;64576;50.460;4.866;2024-03-02T12:56:27;12.41;73.97
75899;DHT22;64576;50.460;4.866;2024-03-02T12:58:54;12.61;74.66
75899;DHT22;64576;50.460;4.866;2024-03-02T13:01:19;13.03;72.40
75899;DHT22;64576;50.460;4.866;2024-03-02T13:03:45;12.69;73.31
75899;DHT22;64576;50.460;4.866;2024-03-02T13:06:10;12.99;73.30
75899;DHT22;64576;50.460;4.866;2024-03-02T13:08:36;12.71;73.71
75899;DHT22;64576;50.460;4.866;2024-03-02T13:11:02;13.13;73.54
75899;DHT22;64576;50.460;4.866;2024-03-02T13:13:30;13.63;71.58
75899;DHT22;64576;50.460;4.866;2024-03-02T13:15:56;14.68;68.86
75899;DHT22;64576;50.460;4.866;2024-03-02T13:18:22;14.02;71.51
75899;DHT22;64576;50.460;4.866;2024-03-02T13:20:47;15.42;68.79
75899;DHT22;64576;50.460;4.866;2024-03-02T13:23:13;16.00;66.59
75899;DHT22;64576;50.460;4.866;2024-03-02T13:25:39;15.90;67.45
75899;DHT22;64576;50.460;4.866;2024-03-02T13:28:05;16.35;66.31
75899;DHT22;64576;50.460;4.866;2024-03-02T13:30:31;16.59;64.95
75899;DHT22;64576;50.460;4.866;2024-03-02T13:32:57;15.21;66.14
75899;DHT22;64576;50.460;4.866;2024-03-02T13:35:23;15.81;65.95
75899;DHT22;64576;50.460;4.866;2024-03-02T13:37:48;14.87;67.76
75899;DHT22;64576;50.460;4.866;2024-03-02T13:40:15;14.34;68.91
75899;DHT22;64576;50.460;4.866;2024-03-02T13:42:45;14.30;69.09
75899;DHT22;64576;50.460;4.866;2024-03-02T13:45:12;15.11;66.93
75899;DHT22;64576;50.460;4.866;2024-03-02T13:47:37;14.78;68.56
75899;DHT22;64576;50.460;4.866;2024-03-02T13:50:03;15.43;66.66
75899;DHT22;64576;50.460;4.866;2024-03-02T13:52:30;14.50;68.34
75899;DHT22;64576;50.460;4.866;2024-03-02T13:54:55;13.71;70.33
75899;DHT22;64576;50.460;4.866;2024-03-02T13:57:21;14.84;69.04
75899;DHT22;64576;50.460;4.866;2024-03-02T13:59:46;14.51;70.23
75899;DHT22;64576;50.460;4.866;2024-03-02T14:02:12;13.50;71.47
75899;DHT22;64576;50.460;4.866;2024-03-02T14:04:37;13.29;72.15
75899;DHT22;64576;50.460;4.866;2024-03-02T14:07:04;14.12;70.91
75899;DHT22;64576;50.460;4.866;2024-03-02T14:09:32;14.18;69.84
75899;DHT22;64576;50.460;4.866;2024-03-02T14:11:57;13.92;70.72
75899;DHT22;64576;50.460;4.866;2024-03-02T14:14:25;13.13;71.88
75899;DHT22;64576;50.460;4.866;2024-03-02T14:16:52;13.08;73.07
75899;DHT22;64576;50.460;4.866;2024-03-02T14:19:17;12.88;73.53
75899;DHT22;64576;50.460;4.866;2024-03-02T14:21:43;12.84;73.84
75899;DHT22;64576;50.460;4.866;2024-03-02T14:24:09;12.99;74.23
75899;DHT22;64576;50.460;4.866;2024-03-02T14:26:35;12.77;74.49
75899;DHT22;64576;50.460;4.866;2024-03-02T14:29:02;12.43;75.17
75899;DHT22;64576;50.460;4.866;2024-03-02T14:31:27;12.34;75.49
75899;DHT22;64576;50.460;4.866;2024-03-02T14:33:53;12.34;75.77
75899;DHT22;64576;50.460;4.866;2024-03-02T14:36:19;12.43;75.34
75899;DHT22;64576;50.460;4.866;2024-03-02T14:38:45;12.48;75.77
75899;DHT22;64576;50.460;4.866;2024-03-02T14:41:11;12.47;75.37
75899;DHT22;64576;50.460;4.866;2024-03-02T14:43:36;12.44;75.82
75899;DHT22;64576;50.460;4.866;2024-03-02T14:46:03;12.51;75.01
75899;DHT22;64576;50.460;4.866;2024-03-02T14:48:28;12.50;75.14
75899;DHT22;64576;50.460;4.866;2024-03-02T14:50:54;12.54;75.62
75899;DHT22;64576;50.460;4.866;2024-03-02T14:53:19;12.37;75.48
75899;DHT22;64576;50.460;4.866;2024-03-02T14:55:45;12.38;75.66
75899;DHT22;64576;50.460;4.866;2024-03-02T14:58:11;12.37;76.04
75899;DHT22;64576;50.460;4.866;2024-03-02T15:00:37;12.40;76.16
75899;DHT22;64576;50.460;4.866;2024-03-02T15:03:03;12.29;76.10
75899;DHT22;64576;50.460;4.866;2024-03-02T15:05:30;12.26;76.04
75899;DHT22;64576;50.460;4.866;2024-03-02T15:07:56;12.12;76.77
75899;DHT22;64576;50.460;4.866;2024-03-02T15:10:24;12.06;77.31
75899;DHT22;64576;50.460;4.866;2024-03-02T15:12:49;11.96;77.47
75899;DHT22;64576;50.460;4.866;2024-03-02T15:15:15;11.90;77.71
75899;DHT22;64576;50.460;4.866;2024-03-02T15:17:41;11.99;78.07
75899;DHT22;64576;50.460;4.866;2024-03-02T15:20:07;11.93;78.01
75899;DHT22;64576;50.460;4.866;2024-03-02T15:22:32;11.82;78.23
75899;DHT22;64576;50.460;4.866;2024-03-02T15:24:58;11.85;78.36
75899;DHT22;64576;50.460;4.866;2024-03-02T15:27:23;11.88;78.61
75899;DHT22;64576;50.460;4.866;2024-03-02T15:29:50;11.85;78.96
75899;DHT22;64576;50.460;4.866;2024-03-02T15:32:17;11.82;79.01
75899;DHT22;64576;50.460;4.866;2024-03-02T15:34:42;11.72;79.28
75899;DHT22;64576;50.460;4.866;2024-03-02T15:37:08;11.77;79.50
75899;DHT22;64576;50.460;4.866;2024-03-02T15:39:33;11.78;79.80
75899;DHT22;64576;50.460;4.866;2024-03-02T15:41:59;11.82;79.70
75899;DHT22;64576;50.460;4.866;2024-03-02T15:44:24;11.77;79.44
75899;DHT22;64576;50.460;4.866;2024-03-02T15:46:50;11.82;79.61
75899;DHT22;64576;50.460;4.866;2024-03-02T15:49:15;11.79;79.98